sensor_id;sensor_type;location;lat;lon;timestamp;pressure;altitude;pressure_sealevel;temperature;humidity
35778;BME280;21899;42.662;23.316;2023-02-04T00:01:39;94197.59;;;1.13;96.91
35778;BME280;21899;42.662;23.316;2023-02-04T00:04:04;94187.69;;;0.98;98.79
35778;BME280;21899;42.662;23.316;2023-02-04T00:06:30;94189.69;;;0.89;100.00
35778;BME280;21899;42.662;23.316;2023-02-04T00:08:55;94181.13;;;0.92;100.00
35778;BME280;21899;42.662;23.316;2023-02-04T00:11:21;94182.31;;;0.94;100.00
35778;BME280;21899;42.662;23.316;2023-02-04T00:13:46;94178.03;;;0.90;100.00
35778;BME280;21899;42.662;23.316;2023-02-04T00:16:12;94188.47;;;0.98;100.00
35778;BME280;21899;42.662;23.316;2023-02-04T00:18:37;94165.75;;;0.94;100.00
35778;BME280;21899;42.662;23.316;2023-02-04T00:21:03;94164.84;;;0.90;100.00
35778;BME280;21899;42.662;23.316;2023-02-04T00:23:28;94169.94;;;1.07;100.00
35778;BME280;21899;42.662;23.316;2023-02-04T00:25:54;94156.63;;;0.91;100.00
35778;BME280;21899;42.662;23.316;2023-02-04T00:28:19;94171.78;;;0.82;100.00
35778;BME280;21899;42.662;23.316;2023-02-04T00:30:44;94167.25;;;0.83;100.00
35778;BME280;21899;42.662;23.316;2023-02-04T00:33:11;94147.28;;;0.82;100.00
35778;BME280;21899;42.662;23.316;2023-02-04T00:35:37;94159.56;;;0.78;100.00
35778;BME280;21899;42.662;23.316;2023-02-04T00:38:03;94155.53;;;0.80;100.00
35778;BME280;21899;42.662;23.316;2023-02-04T00:40:29;94161.34;;;0.74;100.00
35778;BME280;21899;42.662;23.316;2023-02-04T00:42:54;94157.47;;;0.71;100.00
35778;BME280;21899;42.662;23.316;2023-02-04T00:45:19;94157.28;;;0.64;100.00
35778;BME280;21899;42.662;23.316;2023-02-04T00:47:45;94169.13;;;0.70;100.00
35778;BME280;21899;42.662;23.316;2023-02-04T00:50:10;94150.13;;;0.65;100.00
35778;BME280;21899;42.662;23.316;2023-02-04T00:52:36;94132.44;;;0.53;100.00
35778;BME280;21899;42.662;23.316;2023-02-04T00:55:01;94141.78;;;0.51;100.00
35778;BME280;21899;42.662;23.316;2023-02-04T00:57:27;94132.78;;;0.52;100.00
35778;BME280;21899;42.662;23.316;2023-02-04T00:59:52;94132.09;;;0.43;100.00
35778;BME280;21899;42.662;23.316;2023-02-04T01:02:18;94129.69;;;0.50;100.00
35778;BME280;21899;42.662;23.316;2023-02-04T01:04:43;94121.69;;;0.58;100.00
35778;BME280;21899;42.662;23.316;2023-02-04T01:07:09;94119.47;;;0.48;100.00
35778;BME280;21899;42.662;23.316;2023-02-04T01:09:34;94116.53;;;0.50;100.00
35778;BME280;21899;42.662;23.316;2023-02-04T01:11:59;94104.13;;;0.50;100.00
35778;BME280;21899;42.662;23.316;2023-02-04T01:14:25;94105.22;;;0.61;100.00
35778;BME280;21899;42.662;23.316;2023-02-04T01:16:50;94092.19;;;0.53;100.00
35778;BME280;21899;42.662;23.316;2023-02-04T01:19:16;94092.63;;;0.43;100.00
35778;BME280;21899;42.662;23.316;2023-02-04T01:21:41;94093.94;;;0.61;100.00
35778;BME280;21899;42.662;23.316;2023-02-04T01:24:07;94102.28;;;0.63;100.00
35778;BME280;21899;42.662;23.316;2023-02-04T01:26:32;94100.84;;;0.65;100.00
35778;BME280;21899;42.662;23.316;2023-02-04T01:28:57;94095.94;;;0.76;100.00
35778;BME280;21899;42.662;23.316;2023-02-04T01:31:23;94087.16;;;0.84;100.00
35778;BME280;21899;42.662;23.316;2023-02-04T01:33:48;94073.97;;;0.84;100.00
35778;BME280;21899;42.662;23.316;2023-02-04T01:36:14;94078.34;;;0.68;100.00
35778;BME280;21899;42.662;23.316;2023-02-04T01:38:46;94082.09;;;0.79;100.00
35778;BME280;21899;42.662;23.316;2023-02-04T01:41:11;94066.41;;;0.70;100.00
35778;BME280;21899;42.662;23.316;2023-02-04T01:43:37;94073.53;;;0.82;100.00
35778;BME280;21899;42.662;23.316;2023-02-04T01:46:02;94073.97;;;0.84;100.00
35778;BME280;21899;42.662;23.316;2023-02-04T01:48:28;94069.16;;;0.86;100.00
35778;BME280;21899;42.662;23.316;2023-02-04T01:51:03;94063.88;;;0.86;100.00
35778;BME280;21899;42.662;23.316;2023-02-04T01:53:29;94058.41;;;0.79;100.00
35778;BME280;21899;42.662;23.316;2023-02-04T01:55:55;94044.13;;;0.56;100.00
35778;BME280;21899;42.662;23.316;2023-02-04T01:58:21;94038.31;;;0.50;100.00
35778;BME280;21899;42.662;23.316;2023-02-04T02:00:46;94064.44;;;0.79;100.00
35778;BME280;21899;42.662;23.316;2023-02-04T02:03:12;94029.41;;;0.79;100.00
35778;BME280;21899;42.662;23.316;2023-02-04T02:05:47;94053.56;;;0.81;100.00
35778;BME280;21899;42.662;23.316;2023-02-04T02:08:14;94038.72;;;0.76;100.00
35778;BME280;21899;42.662;23.316;2023-02-04T02:10:43;94043.03;;;0.81;100.00
35778;BME280;21899;42.662;23.316;2023-02-04T02:13:11;94032.06;;;0.79;100.00
35778;BME280;21899;42.662;23.316;2023-02-04T02:15:38;94026.78;;;0.55;100.00
35778;BME280;21899;42.662;23.316;2023-02-04T02:18:03;94028.09;;;0.49;100.00
35778;BME280;21899;42.662;23.316;2023-02-04T02:20:29;94036.34;;;0.47;100.00
35778;BME280;21899;42.662;23.316;2023-02-04T02:23:26;94027.66;;;0.59;100.00
35778;BME280;21899;42.662;23.316;2023-02-04T02:25:54;94021.28;;;0.60;100.00
35778;BME280;21899;42.662;23.316;2023-02-04T02:28:20;94011.88;;;0.59;100.00
35778;BME280;21899;42.662;23.316;2023-02-04T02:30:48;94003.09;;;0.55;100.00
35778;BME280;21899;42.662;23.316;2023-02-04T02:33:16;93994.28;;;0.75;100.00
35778;BME280;21899;42.662;23.316;2023-02-04T02:35:44;93980.03;;;0.64;100.00
35778;BME280;21899;42.662;23.316;2023-02-04T02:38:13;93976.97;;;0.50;100.00
35778;BME280;21899;42.662;23.316;2023-02-04T02:40:38;93969.75;;;0.47;100.00
35778;BME280;21899;42.662;23.316;2023-02-04T02:43:04;93956.91;;;0.45;100.00
35778;BME280;21899;42.662;23.316;2023-02-04T02:45:31;93957.91;;;0.41;100.00
35778;BME280;21899;42.662;23.316;2023-02-04T02:47:59;93949.56;;;0.39;100.00
35778;BME280;21899;42.662;23.316;2023-02-04T02:50:29;93961.22;;;0.38;100.00
35778;BME280;21899;42.662;23.316;2023-02-04T02:52:55;93958.03;;;0.32;100.00
35778;BME280;21899;42.662;23.316;2023-02-04T02:55:24;93946.50;;;0.37;100.00
35778;BME280;21899;42.662;23.316;2023-02-04T02:57:50;93943.41;;;0.47;100.00
35778;BME280;21899;42.662;23.316;2023-02-04T03:00:20;93949.22;;;0.52;100.00
35778;BME280;21899;42.662;23.316;2023-02-04T03:02:55;93945.81;;;0.52;100.00
35778;BME280;21899;42.662;23.316;2023-02-04T03:05:22;93949.34;;;0.56;100.00
35778;BME280;21899;42.662;23.316;2023-02-04T03:07:49;93931.69;;;0.44;100.00
35778;BME280;21899;42.662;23.316;2023-02-04T03:10:16;93930.91;;;0.44;100.00
35778;BME280;21899;42.662;23.316;2023-02-04T03:12:42;93940.16;;;0.38;100.00
35778;BME280;21899;42.662;23.316;2023-02-04T03:15:08;93952.53;;;0.37;100.00
35778;BME280;21899;42.662;23.316;2023-02-04T03:17:34;93946.38;;;0.33;100.00
35778;BME280;21899;42.662;23.316;2023-02-04T03:20:00;93961.00;;;0.43;100.00
35778;BME280;21899;42.662;23.316;2023-02-04T03:22:25;93961.72;;;0.43;100.00
35778;BME280;21899;42.662;23.316;2023-02-04T03:24:51;93953.50;;;0.45;100.00
35778;BME280;21899;42.662;23.316;2023-02-04T03:27:17;93940.16;;;0.38;100.00
35778;BME280;21899;42.662;23.316;2023-02-04T03:29:44;93935.75;;;0.42;100.00
35778;BME280;21899;42.662;23.316;2023-02-04T03:32:09;93952.63;;;0.53;100.00
35778;BME280;21899;42.662;23.316;2023-02-04T03:34:35;93947.16;;;0.58;100.00
35778;BME280;21899;42.662;23.316;2023-02-04T03:37:00;93953.81;;;0.67;100.00
35778;BME280;21899;42.662;23.316;2023-02-04T03:39:26;93944.19;;;0.59;100.00
35778;BME280;21899;42.662;23.316;2023-02-04T03:41:51;93955.22;;;0.77;100.00
35778;BME280;21899;42.662;23.316;2023-02-04T03:44:17;93936.53;;;0.94;100.00
35778;BME280;21899;42.662;23.316;2023-02-04T03:46:43;93933.81;;;1.06;100.00
35778;BME280;21899;42.662;23.316;2023-02-04T03:49:08;93931.13;;;1.02;100.00
35778;BME280;21899;42.662;23.316;2023-02-04T03:51:33;93917.88;;;0.87;100.00
35778;BME280;21899;42.662;23.316;2023-02-04T03:53:59;93924.84;;;1.07;100.00
35778;BME280;21899;42.662;23.316;2023-02-04T03:56:24;93930.09;;;1.07;100.00
35778;BME280;21899;42.662;23.316;2023-02-04T03:58:49;93885.16;;;0.88;100.00
35778;BME280;21899;42.662;23.316;2023-02-04T04:01:15;93901.84;;;0.92;100.00
35778;BME280;21899;42.662;23.316;2023-02-04T04:03:40;93888.19;;;1.02;100.00
35778;BME280;21899;42.662;23.316;2023-02-04T04:06:06;93883.69;;;1.02;100.00
35778;BME280;21899;42.662;23.316;2023-02-04T04:08:34;93882.22;;;1.05;100.00
35778;BME280;21899;42.662;23.316;2023-02-04T04:10:59;93862.41;;;0.95;100.00
35778;BME280;21899;42.662;23.316;2023-02-04T04:13:25;93860.13;;;0.94;100.00
35778;BME280;21899;42.662;23.316;2023-02-04T04:15:50;93847.28;;;0.92;100.00
35778;BME280;21899;42.662;23.316;2023-02-04T04:18:15;93856.56;;;1.02;100.00
35778;BME280;21899;42.662;23.316;2023-02-04T04:20:41;93859.47;;;1.12;100.00
35778;BME280;21899;42.662;23.316;2023-02-04T04:23:07;93841.59;;;1.06;100.00
35778;BME280;21899;42.662;23.316;2023-02-04T04:25:32;93866.13;;;1.22;100.00
35778;BME280;21899;42.662;23.316;2023-02-04T04:27:57;93859.66;;;1.19;100.00
35778;BME280;21899;42.662;23.316;2023-02-04T04:30:23;93874.44;;;1.24;100.00
35778;BME280;21899;42.662;23.316;2023-02-04T04:32:48;93888.16;;;1.29;100.00
35778;BME280;21899;42.662;23.316;2023-02-04T04:35:13;93871.66;;;1.32;100.00
35778;BME280;21899;42.662;23.316;2023-02-04T04:37:39;93878.28;;;1.26;100.00
35778;BME280;21899;42.662;23.316;2023-02-04T04:40:05;93888.59;;;1.31;100.00
35778;BME280;21899;42.662;23.316;2023-02-04T04:42:30;93888.78;;;1.39;100.00
35778;BME280;21899;42.662;23.316;2023-02-04T04:44:55;93893.03;;;1.43;100.00
35778;BME280;21899;42.662;23.316;2023-02-04T04:47:21;93887.91;;;1.34;100.00
35778;BME280;21899;42.662;23.316;2023-02-04T04:49:47;93897.19;;;1.44;100.00
35778;BME280;21899;42.662;23.316;2023-02-04T04:52:12;93900.19;;;1.58;100.00
35778;BME280;21899;42.662;23.316;2023-02-04T04:54:37;93890.94;;;1.80;100.00
35778;BME280;21899;42.662;23.316;2023-02-04T04:57:03;93898.47;;;2.12;98.01
35778;BME280;21899;42.662;23.316;2023-02-04T04:59:28;93891.91;;;2.56;94.35
35778;BME280;21899;42.662;23.316;2023-02-04T05:01:53;93900.69;;;2.80;93.14
35778;BME280;21899;42.662;23.316;2023-02-04T05:04:19;93903.66;;;2.94;92.66
35778;BME280;21899;42.662;23.316;2023-02-04T05:06:44;93892.38;;;2.97;93.41
35778;BME280;21899;42.662;23.316;2023-02-04T05:09:10;93894.75;;;3.02;92.53
35778;BME280;21899;42.662;23.316;2023-02-04T05:11:35;93891.47;;;3.08;93.09
35778;BME280;21899;42.662;23.316;2023-02-04T05:14:01;93893.00;;;3.09;93.34
35778;BME280;21899;42.662;23.316;2023-02-04T05:16:26;93903.44;;;3.02;94.01
35778;BME280;21899;42.662;23.316;2023-02-04T05:18:52;93910.19;;;3.00;95.18
35778;BME280;21899;42.662;23.316;2023-02-04T05:21:18;93901.81;;;2.98;96.59
35778;BME280;21899;42.662;23.316;2023-02-04T05:23:43;93901.34;;;2.92;97.15
35778;BME280;21899;42.662;23.316;2023-02-04T05:26:08;93918.22;;;2.88;98.25
35778;BME280;21899;42.662;23.316;2023-02-04T05:28:34;93930.72;;;2.87;97.98
35778;BME280;21899;42.662;23.316;2023-02-04T05:30:59;93930.63;;;2.84;97.97
35778;BME280;21899;42.662;23.316;2023-02-04T05:33:25;93945.97;;;2.78;99.13
35778;BME280;21899;42.662;23.316;2023-02-04T05:35:51;93957.59;;;2.74;99.77
35778;BME280;21899;42.662;23.316;2023-02-04T05:38:16;93958.63;;;2.69;99.70
35778;BME280;21899;42.662;23.316;2023-02-04T05:40:42;93963.66;;;2.58;100.00
35778;BME280;21899;42.662;23.316;2023-02-04T05:43:07;93963.66;;;2.58;100.00
35778;BME280;21899;42.662;23.316;2023-02-04T05:45:33;93954.91;;;2.54;100.00
35778;BME280;21899;42.662;23.316;2023-02-04T05:47:58;93952.53;;;2.49;100.00
35778;BME280;21899;42.662;23.316;2023-02-04T05:50:24;93976.44;;;2.56;100.00
35778;BME280;21899;42.662;23.316;2023-02-04T05:52:49;93963.16;;;2.53;100.00
35778;BME280;21899;42.662;23.316;2023-02-04T05:55:15;93952.94;;;2.51;100.00
35778;BME280;21899;42.662;23.316;2023-02-04T05:57:40;93928.59;;;2.42;99.25
35778;BME280;21899;42.662;23.316;2023-02-04T06:00:07;93942.22;;;2.44;100.00
35778;BME280;21899;42.662;23.316;2023-02-04T06:02:32;93931.50;;;2.37;99.88
35778;BME280;21899;42.662;23.316;2023-02-04T06:04:58;93907.16;;;2.28;98.56
35778;BME280;21899;42.662;23.316;2023-02-04T06:07:23;93918.47;;;2.29;97.25
35778;BME280;21899;42.662;23.316;2023-02-04T06:09:49;93927.56;;;2.31;97.35
35778;BME280;21899;42.662;23.316;2023-02-04T06:12:14;93911.34;;;2.29;95.77
35778;BME280;21899;42.662;23.316;2023-02-04T06:14:40;93926.38;;;2.44;94.35
35778;BME280;21899;42.662;23.316;2023-02-04T06:17:05;93941.03;;;2.57;93.45
35778;BME280;21899;42.662;23.316;2023-02-04T06:19:30;93947.28;;;2.68;91.27
35778;BME280;21899;42.662;23.316;2023-02-04T06:21:56;93947.44;;;2.76;90.28
35778;BME280;21899;42.662;23.316;2023-02-04T06:24:21;93958.31;;;2.90;90.12
35778;BME280;21899;42.662;23.316;2023-02-04T06:26:47;93951.66;;;2.96;89.49
35778;BME280;21899;42.662;23.316;2023-02-04T06:29:12;93951.31;;;2.97;89.89
35778;BME280;21899;42.662;23.316;2023-02-04T06:31:37;93938.00;;;2.94;90.08
35778;BME280;21899;42.662;23.316;2023-02-04T06:34:04;93968.34;;;3.00;88.61
35778;BME280;21899;42.662;23.316;2023-02-04T06:36:30;93963.91;;;3.04;88.96
35778;BME280;21899;42.662;23.316;2023-02-04T06:38:55;93958.78;;;3.11;87.72
35778;BME280;21899;42.662;23.316;2023-02-04T06:41:21;93961.81;;;3.13;86.55
35778;BME280;21899;42.662;23.316;2023-02-04T06:43:46;93955.78;;;3.12;86.50
35778;BME280;21899;42.662;23.316;2023-02-04T06:46:12;93961.97;;;3.20;85.73
35778;BME280;21899;42.662;23.316;2023-02-04T06:48:37;93952.22;;;3.24;84.07
35778;BME280;21899;42.662;23.316;2023-02-04T06:51:03;93955.34;;;3.29;83.15
35778;BME280;21899;42.662;23.316;2023-02-04T06:53:28;93956.38;;;3.44;82.57
35778;BME280;21899;42.662;23.316;2023-02-04T06:55:53;93963.34;;;3.52;81.97
35778;BME280;21899;42.662;23.316;2023-02-04T06:58:19;93949.97;;;3.64;81.30
35778;BME280;21899;42.662;23.316;2023-02-04T07:00:44;93951.16;;;3.89;80.35
35778;BME280;21899;42.662;23.316;2023-02-04T07:03:10;93955.31;;;4.09;78.99
35778;BME280;21899;42.662;23.316;2023-02-04T07:05:35;93947.47;;;4.16;78.51
35778;BME280;21899;42.662;23.316;2023-02-04T07:08:01;93939.09;;;4.37;78.12
35778;BME280;21899;42.662;23.316;2023-02-04T07:10:26;93944.91;;;4.46;77.22
35778;BME280;21899;42.662;23.316;2023-02-04T07:12:51;93929.72;;;4.43;76.27
35778;BME280;21899;42.662;23.316;2023-02-04T07:15:17;93932.22;;;4.32;76.74
35778;BME280;21899;42.662;23.316;2023-02-04T07:17:42;93936.03;;;4.35;76.24
35778;BME280;21899;42.662;23.316;2023-02-04T07:20:09;93935.94;;;4.28;75.97
35778;BME280;21899;42.662;23.316;2023-02-04T07:22:35;93935.16;;;4.27;76.99
35778;BME280;21899;42.662;23.316;2023-02-04T07:25:01;93931.38;;;4.28;76.72
35778;BME280;21899;42.662;23.316;2023-02-04T07:27:26;93909.38;;;4.24;76.22
35778;BME280;21899;42.662;23.316;2023-02-04T07:29:51;93924.06;;;4.18;76.25
35778;BME280;21899;42.662;23.316;2023-02-04T07:32:17;93918.44;;;4.23;76.73
35778;BME280;21899;42.662;23.316;2023-02-04T07:34:42;93917.16;;;4.36;75.90
35778;BME280;21899;42.662;23.316;2023-02-04T07:37:07;93921.06;;;4.46;75.04
35778;BME280;21899;42.662;23.316;2023-02-04T07:39:33;93918.56;;;4.30;74.44
35778;BME280;21899;42.662;23.316;2023-02-04T07:41:58;93915.25;;;4.37;75.27
35778;BME280;21899;42.662;23.316;2023-02-04T07:44:23;93920.00;;;4.50;74.69
35778;BME280;21899;42.662;23.316;2023-02-04T07:46:49;93911.06;;;4.62;74.49
35778;BME280;21899;42.662;23.316;2023-02-04T07:49:14;93917.94;;;4.66;72.93
35778;BME280;21899;42.662;23.316;2023-02-04T07:51:40;93927.63;;;4.81;72.75
35778;BME280;21899;42.662;23.316;2023-02-04T07:54:05;93916.28;;;4.84;72.28
35778;BME280;21899;42.662;23.316;2023-02-04T07:56:30;93919.19;;;5.02;71.56
35778;BME280;21899;42.662;23.316;2023-02-04T07:58:56;93920.66;;;4.99;70.17
35778;BME280;21899;42.662;23.316;2023-02-04T08:01:21;93905.13;;;4.98;70.20
35778;BME280;21899;42.662;23.316;2023-02-04T08:03:46;93918.09;;;5.06;70.25
35778;BME280;21899;42.662;23.316;2023-02-04T08:06:12;93905.13;;;4.98;70.35
35778;BME280;21899;42.662;23.316;2023-02-04T08:08:37;93911.50;;;4.93;70.97
35778;BME280;21899;42.662;23.316;2023-02-04T08:11:03;93921.13;;;5.05;70.82
35778;BME280;21899;42.662;23.316;2023-02-04T08:13:28;93918.41;;;5.01;71.11
35778;BME280;21899;42.662;23.316;2023-02-04T08:15:53;93918.00;;;4.99;70.69
35778;BME280;21899;42.662;23.316;2023-02-04T08:18:19;93929.47;;;4.77;71.08
35778;BME280;21899;42.662;23.316;2023-02-04T08:20:44;93927.03;;;4.65;72.10
35778;BME280;21899;42.662;23.316;2023-02-04T08:23:10;93934.13;;;4.58;73.23
35778;BME280;21899;42.662;23.316;2023-02-04T08:25:35;93935.69;;;4.62;73.21
35778;BME280;21899;42.662;23.316;2023-02-04T08:28:01;93929.31;;;4.67;73.33
35778;BME280;21899;42.662;23.316;2023-02-04T08:30:26;93916.91;;;4.74;73.11
35778;BME280;21899;42.662;23.316;2023-02-04T08:32:52;93929.56;;;4.84;72.84
35778;BME280;21899;42.662;23.316;2023-02-04T08:35:17;93911.53;;;4.67;72.34
35778;BME280;21899;42.662;23.316;2023-02-04T08:37:43;93912.34;;;4.71;72.98
35778;BME280;21899;42.662;23.316;2023-02-04T08:40:09;93915.09;;;4.78;73.83
35778;BME280;21899;42.662;23.316;2023-02-04T08:42:34;93914.31;;;4.78;74.54
35778;BME280;21899;42.662;23.316;2023-02-04T08:45:00;93913.06;;;4.68;74.43
35778;BME280;21899;42.662;23.316;2023-02-04T08:47:25;93891.66;;;4.54;76.55
35778;BME280;21899;42.662;23.316;2023-02-04T08:49:51;93907.94;;;4.56;77.25
35778;BME280;21899;42.662;23.316;2023-02-04T08:52:16;93914.09;;;4.60;77.41
35778;BME280;21899;42.662;23.316;2023-02-04T08:54:43;93908.13;;;4.67;77.93
35778;BME280;21899;42.662;23.316;2023-02-04T08:57:08;93902.81;;;4.67;78.35
35778;BME280;21899;42.662;23.316;2023-02-04T08:59:33;93891.75;;;4.61;78.13
35778;BME280;21899;42.662;23.316;2023-02-04T09:01:59;93907.25;;;4.59;77.35
35778;BME280;21899;42.662;23.316;2023-02-04T09:04:24;93909.03;;;4.52;77.94
35778;BME280;21899;42.662;23.316;2023-02-04T09:06:50;93899.66;;;4.58;77.92
35778;BME280;21899;42.662;23.316;2023-02-04T09:09:16;93886.38;;;4.54;76.47
35778;BME280;21899;42.662;23.316;2023-02-04T09:11:42;93897.47;;;4.63;76.63
35778;BME280;21899;42.662;23.316;2023-02-04T09:14:07;93894.25;;;4.77;75.29
35778;BME280;21899;42.662;23.316;2023-02-04T09:16:33;93884.47;;;4.84;73.19
35778;BME280;21899;42.662;23.316;2023-02-04T09:18:58;93883.78;;;4.87;71.89
35778;BME280;21899;42.662;23.316;2023-02-04T09:21:24;93883.06;;;4.90;72.97
35778;BME280;21899;42.662;23.316;2023-02-04T09:23:50;93893.03;;;5.00;71.60
35778;BME280;21899;42.662;23.316;2023-02-04T09:26:15;93887.63;;;4.93;71.83
35778;BME280;21899;42.662;23.316;2023-02-04T09:28:41;93897.97;;;5.02;72.01
35778;BME280;21899;42.662;23.316;2023-02-04T09:31:06;93898.75;;;5.06;71.67
35778;BME280;21899;42.662;23.316;2023-02-04T09:33:33;93905.06;;;4.94;72.42
35778;BME280;21899;42.662;23.316;2023-02-04T09:35:58;93907.97;;;4.82;74.86
35778;BME280;21899;42.662;23.316;2023-02-04T09:38:24;93898.84;;;4.54;77.54
35778;BME280;21899;42.662;23.316;2023-02-04T09:40:55;93896.59;;;4.56;78.00
35778;BME280;21899;42.662;23.316;2023-02-04T09:43:24;93887.88;;;4.55;78.81
35778;BME280;21899;42.662;23.316;2023-02-04T09:45:51;93900.09;;;4.63;79.37
35778;BME280;21899;42.662;23.316;2023-02-04T09:48:17;93891.75;;;4.61;81.65
35778;BME280;21899;42.662;23.316;2023-02-04T09:50:42;93880.38;;;4.35;83.11
35778;BME280;21899;42.662;23.316;2023-02-04T09:53:12;93880.06;;;4.36;85.15
35778;BME280;21899;42.662;23.316;2023-02-04T09:55:43;93868.22;;;4.30;86.38
35778;BME280;21899;42.662;23.316;2023-02-04T09:58:21;93872.53;;;4.42;85.71
35778;BME280;21899;42.662;23.316;2023-02-04T10:00:51;93858.88;;;4.40;85.25
35778;BME280;21899;42.662;23.316;2023-02-04T10:03:21;93868.91;;;4.53;85.35
35778;BME280;21899;42.662;23.316;2023-02-04T10:05:47;93868.19;;;4.56;83.06
35778;BME280;21899;42.662;23.316;2023-02-04T10:08:16;93851.81;;;4.47;82.80
35778;BME280;21899;42.662;23.316;2023-02-04T10:10:43;93851.00;;;4.43;82.72
35778;BME280;21899;42.662;23.316;2023-02-04T10:13:23;93851.50;;;4.52;83.47
35778;BME280;21899;42.662;23.316;2023-02-04T10:15:52;93853.97;;;4.68;82.86
35778;BME280;21899;42.662;23.316;2023-02-04T10:18:30;93857.91;;;4.77;82.91
35778;BME280;21899;42.662;23.316;2023-02-04T10:21:10;93842.22;;;4.65;82.96
35778;BME280;21899;42.662;23.316;2023-02-04T10:23:37;93840.31;;;4.66;82.52
35778;BME280;21899;42.662;23.316;2023-02-04T10:26:03;93834.56;;;4.60;83.08
35778;BME280;21899;42.662;23.316;2023-02-04T10:28:35;93824.47;;;4.69;83.14
35778;BME280;21899;42.662;23.316;2023-02-04T10:31:01;93841.56;;;4.75;82.87
35778;BME280;21899;42.662;23.316;2023-02-04T10:33:27;93853.38;;;4.81;82.99
35778;BME280;21899;42.662;23.316;2023-02-04T10:35:55;93834.41;;;4.76;82.87
35778;BME280;21899;42.662;23.316;2023-02-04T10:38:20;93829.00;;;4.69;84.42
35778;BME280;21899;42.662;23.316;2023-02-04T10:40:46;93834.72;;;4.45;87.26
35778;BME280;21899;42.662;23.316;2023-02-04T10:43:19;93842.25;;;4.39;90.79
35778;BME280;21899;42.662;23.316;2023-02-04T10:45:50;93834.19;;;4.32;92.77
35778;BME280;21899;42.662;23.316;2023-02-04T10:48:19;93826.56;;;4.27;92.39
35778;BME280;21899;42.662;23.316;2023-02-04T10:50:46;93834.44;;;4.24;92.78
35778;BME280;21899;42.662;23.316;2023-02-04T10:53:15;93830.72;;;4.28;93.43
35778;BME280;21899;42.662;23.316;2023-02-04T10:56:00;93827.28;;;4.24;94.03
35778;BME280;21899;42.662;23.316;2023-02-04T10:58:28;93823.91;;;4.27;93.89
35778;BME280;21899;42.662;23.316;2023-02-04T11:00:54;93808.41;;;4.29;92.91
35778;BME280;21899;42.662;23.316;2023-02-04T11:03:23;93817.69;;;4.42;93.20
35778;BME280;21899;42.662;23.316;2023-02-04T11:05:50;93803.19;;;4.33;92.41
35778;BME280;21899;42.662;23.316;2023-02-04T11:08:39;93805.25;;;4.46;91.05
35778;BME280;21899;42.662;23.316;2023-02-04T11:11:19;93805.41;;;4.60;90.65
35778;BME280;21899;42.662;23.316;2023-02-04T11:21:26;93794.41;;;4.91;87.50
35778;BME280;21899;42.662;23.316;2023-02-04T11:26:48;93790.63;;;4.89;87.82
35778;BME280;21899;42.662;23.316;2023-02-04T11:29:26;93801.22;;;4.89;88.29
35778;BME280;21899;42.662;23.316;2023-02-04T11:39:27;93798.47;;;4.82;87.82
35778;BME280;21899;42.662;23.316;2023-02-04T11:42:00;93796.16;;;4.77;88.04
35778;BME280;21899;42.662;23.316;2023-02-04T11:44:26;93797.97;;;4.73;88.79
35778;BME280;21899;42.662;23.316;2023-02-04T11:46:52;93800.78;;;4.83;90.06
35778;BME280;21899;42.662;23.316;2023-02-04T11:49:20;93805.44;;;4.93;88.31
35778;BME280;21899;42.662;23.316;2023-02-04T11:51:48;93800.56;;;4.99;88.33
35778;BME280;21899;42.662;23.316;2023-02-04T11:54:14;93806.31;;;5.04;87.50
35778;BME280;21899;42.662;23.316;2023-02-04T11:56:44;93802.22;;;5.10;87.71
35778;BME280;21899;42.662;23.316;2023-02-04T11:59:10;93797.94;;;5.02;88.86
35778;BME280;21899;42.662;23.316;2023-02-04T12:01:36;93802.47;;;4.98;88.56
35778;BME280;21899;42.662;23.316;2023-02-04T12:04:05;93808.84;;;4.94;89.45
35778;BME280;21899;42.662;23.316;2023-02-04T12:06:36;93792.22;;;4.64;90.20
35778;BME280;21899;42.662;23.316;2023-02-04T12:09:21;93791.13;;;4.68;92.17
35778;BME280;21899;42.662;23.316;2023-02-04T12:11:58;93794.09;;;4.63;92.50
35778;BME280;21899;42.662;23.316;2023-02-04T12:14:32;93807.03;;;4.68;93.16
35778;BME280;21899;42.662;23.316;2023-02-04T12:16:58;93803.91;;;4.59;93.72
35778;BME280;21899;42.662;23.316;2023-02-04T12:19:23;93800.88;;;4.31;94.18
35778;BME280;21899;42.662;23.316;2023-02-04T12:21:49;93794.31;;;4.22;93.84
35778;BME280;21899;42.662;23.316;2023-02-04T12:24:14;93798.50;;;4.23;96.33
35778;BME280;21899;42.662;23.316;2023-02-04T12:26:40;93790.97;;;4.25;96.35
35778;BME280;21899;42.662;23.316;2023-02-04T12:29:05;93777.34;;;4.26;96.46
35778;BME280;21899;42.662;23.316;2023-02-04T12:31:31;93786.19;;;4.37;97.13
35778;BME280;21899;42.662;23.316;2023-02-04T12:33:57;93788.63;;;4.49;96.08
35778;BME280;21899;42.662;23.316;2023-02-04T12:36:23;93778.06;;;4.53;94.22
35778;BME280;21899;42.662;23.316;2023-02-04T12:38:49;93785.31;;;4.56;93.43
35778;BME280;21899;42.662;23.316;2023-02-04T12:41:14;93781.06;;;4.51;92.15
35778;BME280;21899;42.662;23.316;2023-02-04T12:43:39;93776.94;;;4.54;91.17
35778;BME280;21899;42.662;23.316;2023-02-04T12:46:05;93779.72;;;4.64;90.59
35778;BME280;21899;42.662;23.316;2023-02-04T12:48:30;93775.53;;;4.63;90.66
35778;BME280;21899;42.662;23.316;2023-02-04T12:50:56;93780.56;;;4.72;89.45
35778;BME280;21899;42.662;23.316;2023-02-04T12:53:21;93775.78;;;4.84;87.20
35778;BME280;21899;42.662;23.316;2023-02-04T12:55:47;93779.94;;;4.82;85.55
35778;BME280;21899;42.662;23.316;2023-02-04T12:58:12;93770.88;;;4.86;86.18
35778;BME280;21899;42.662;23.316;2023-02-04T13:00:38;93778.81;;;4.86;82.45
35778;BME280;21899;42.662;23.316;2023-02-04T13:03:03;93781.34;;;4.72;83.01
35778;BME280;21899;42.662;23.316;2023-02-04T13:05:29;93785.41;;;4.66;83.43
35778;BME280;21899;42.662;23.316;2023-02-04T13:07:55;93782.97;;;4.51;84.17
35778;BME280;21899;42.662;23.316;2023-02-04T13:10:22;93781.41;;;4.46;84.28